createdAt,value
2023-02-14T00:00:52.934Z,100338.03
2023-02-14T00:01:55.536Z,100337.15
2023-02-14T00:02:58.788Z,100337.15
2023-02-14T00:04:00.873Z,100336.30
2023-02-14T00:05:04.241Z,100338.00
2023-02-14T00:06:08.543Z,100338.00
2023-02-14T00:07:11.207Z,100339.73
2023-02-14T00:08:13.241Z,100332.83
2023-02-14T00:09:18.804Z,100338.03
2023-02-14T00:10:21.369Z,100339.80
2023-02-14T00:11:23.443Z,100338.03
2023-02-14T00:12:25.423Z,100338.95
2023-02-14T00:13:28.115Z,100337.15
2023-02-14T00:14:30.384Z,100335.45
2023-02-14T00:15:32.414Z,100336.37
2023-02-14T00:16:34.570Z,100332.83
2023-02-14T00:17:36.517Z,100345.95
2023-02-14T00:18:38.381Z,100341.63
2023-02-14T00:19:40.695Z,100327.66
2023-02-14T00:20:42.874Z,100339.05
2023-02-14T00:21:46.080Z,100327.66
2023-02-14T00:22:49.278Z,100328.48
2023-02-14T00:23:51.234Z,100324.98
2023-02-14T00:24:53.123Z,100329.36
2023-02-14T00:25:55.006Z,100332.80
2023-02-14T00:26:59.877Z,100331.06
2023-02-14T00:28:02.056Z,100330.22
2023-02-14T00:29:09.289Z,100329.40
2023-02-14T00:30:13.976Z,100336.30
2023-02-14T00:31:16.051Z,100334.59
2023-02-14T00:32:18.042Z,100331.13
2023-02-14T00:33:19.933Z,100330.22
2023-02-14T00:34:22.227Z,100323.28
2023-02-14T00:35:24.908Z,100333.69
2023-02-14T00:36:27.319Z,100332.14
2023-02-14T00:37:29.207Z,100320.66
2023-02-14T00:38:31.780Z,100319.78
2023-02-14T00:39:33.784Z,100322.37
2023-02-14T00:40:35.764Z,100325.86
2023-02-14T00:41:39.365Z,100314.45
2023-02-14T00:42:41.750Z,100317.88
2023-02-14T00:43:44.097Z,100326.66
2023-02-14T00:44:46.558Z,100325.77
2023-02-14T00:45:48.486Z,100327.53
2023-02-14T00:46:51.173Z,100334.50
2023-02-14T00:47:53.179Z,100326.62
2023-02-14T00:48:56.149Z,100343.20
2023-02-14T00:49:58.081Z,100318.80
2023-02-14T00:51:00.842Z,100320.50
2023-02-14T00:52:04.737Z,100322.30
2023-02-14T00:53:06.676Z,100321.52
2023-02-14T00:54:08.650Z,100337.12
2023-02-14T00:55:10.565Z,100326.66
2023-02-14T00:56:14.629Z,100332.73
2023-02-14T00:57:16.690Z,100326.69
2023-02-14T00:58:18.570Z,100325.73
2023-02-14T00:59:20.712Z,100325.83
2023-02-14T01:00:23.528Z,100327.47
2023-02-14T01:01:27.078Z,100324.03
2023-02-14T01:02:29.193Z,100317.06
2023-02-14T01:03:31.402Z,100323.97
2023-02-14T01:04:33.487Z,100325.70
2023-02-14T01:05:35.686Z,100306.47
2023-02-14T01:06:37.943Z,100312.55
2023-02-14T01:07:40.788Z,100309.12
2023-02-14T01:08:43.017Z,100309.08
2023-02-14T01:09:46.144Z,100306.53
2023-02-14T01:10:49.158Z,100296.91
2023-02-14T01:11:51.194Z,100289.91
2023-02-14T01:12:53.180Z,100294.34
2023-02-14T01:13:57.071Z,100291.69
2023-02-14T01:14:59.153Z,100303.88
2023-02-14T01:16:10.368Z,100296.06
2023-02-14T01:17:12.377Z,100296.03
2023-02-14T01:18:15.865Z,100290.90
2023-02-14T01:19:17.920Z,100290.90
2023-02-14T01:20:20.741Z,100277.78
2023-02-14T01:21:26.506Z,100284.75
2023-02-14T01:22:28.419Z,100288.28
2023-02-14T01:23:30.319Z,100291.81
2023-02-14T01:24:32.218Z,100289.20
2023-02-14T01:25:36.383Z,100289.09
2023-02-14T01:26:39.259Z,100289.06
2023-02-14T01:27:41.331Z,100286.52
2023-02-14T01:28:43.837Z,100283.73
2023-02-14T01:29:46.355Z,100293.48
2023-02-14T01:30:48.674Z,100283.86
2023-02-14T01:31:50.599Z,100283.86
2023-02-14T01:32:52.536Z,100273.33
2023-02-14T01:33:55.613Z,100265.45
2023-02-14T01:34:57.853Z,100270.75
2023-02-14T01:35:59.968Z,100257.66
2023-02-14T01:37:01.841Z,100267.31
2023-02-14T01:38:03.915Z,100248.92
2023-02-14T01:39:09.077Z,100254.16
2023-02-14T01:40:13.348Z,100261.23
2023-02-14T01:41:15.549Z,100250.77
2023-02-14T01:42:18.287Z,100247.16
2023-02-14T01:43:20.195Z,100246.23
2023-02-14T01:44:38.366Z,100241.92
2023-02-14T01:45:41.390Z,100252.39
2023-02-14T01:46:45.390Z,100254.13
2023-02-14T01:47:53.704Z,100257.63
2023-02-14T01:49:02.199Z,100251.58
2023-02-14T01:50:10.759Z,100254.13
2023-02-14T01:51:15.279Z,100253.28
2023-02-14T01:52:21.498Z,100244.47
2023-02-14T01:53:27.161Z,100243.66
2023-02-14T01:54:32.457Z,100245.42
2023-02-14T01:55:37.754Z,100247.83
2023-02-14T01:56:43.710Z,100243.63
2023-02-14T01:57:49.464Z,100239.23
2023-02-14T01:58:55.181Z,100224.42
2023-02-14T02:00:00.644Z,100222.72
2023-02-14T02:01:04.262Z,100209.60
2023-02-14T02:02:07.415Z,100225.30
2023-02-14T02:03:12.165Z,100219.15
2023-02-14T02:04:20.858Z,100212.15
2023-02-14T02:05:23.491Z,100203.45
2023-02-14T02:06:32.520Z,100209.60
2023-02-14T02:07:36.486Z,100209.56
2023-02-14T02:08:42.269Z,100211.33
2023-02-14T02:09:47.996Z,100198.28
2023-02-14T02:10:50.379Z,100207.02
2023-02-14T02:11:52.388Z,100199.09
2023-02-14T02:12:57.721Z,100199.98
2023-02-14T02:13:59.628Z,100200.83
2023-02-14T02:15:02.799Z,100191.25
2023-02-14T02:16:21.017Z,100193.83
2023-02-14T02:17:48.423Z,100199.98
2023-02-14T02:19:06.768Z,100207.91
2023-02-14T02:20:28.269Z,100221.77
2023-02-14T02:21:46.227Z,100208.68
2023-02-14T02:23:24.563Z,100207.77
2023-02-14T02:24:32.984Z,100198.25
2023-02-14T02:25:58.524Z,100189.48
2023-02-14T02:27:16.602Z,100174.70
2023-02-14T02:28:32.022Z,100177.31
2023-02-14T02:30:11.716Z,100170.27
2023-02-14T02:31:33.088Z,100180.78
2023-02-14T02:32:51.230Z,100183.43
2023-02-14T02:33:56.928Z,100183.51
2023-02-14T02:35:05.416Z,100193.02
2023-02-14T02:36:38.466Z,100191.25
2023-02-14T02:37:56.433Z,100180.78
2023-02-14T02:39:12.306Z,100187.75
2023-02-14T02:40:52.022Z,100186.90
2023-02-14T02:42:09.847Z,100192.02
2023-02-14T02:43:18.597Z,100186.90
2023-02-14T02:44:49.647Z,100194.67
2023-02-14T02:46:13.918Z,100193.86
2023-02-14T02:47:38.405Z,100207.02
2023-02-14T02:48:44.416Z,100206.95
2023-02-14T02:49:55.854Z,100212.19
2023-02-14T02:51:01.824Z,100205.14
2023-02-14T02:52:07.854Z,100196.48
2023-02-14T02:53:25.843Z,100192.20
2023-02-14T02:54:43.565Z,100195.59
2023-02-14T02:56:10.755Z,100202.49
2023-02-14T02:57:16.474Z,100209.56
2023-02-14T02:58:22.400Z,100216.42
2023-02-14T02:59:34.130Z,100219.15
2023-02-14T03:00:36.515Z,100213.95
2023-02-14T03:01:41.929Z,100226.16
2023-02-14T03:02:48.236Z,100235.91
2023-02-14T03:03:53.927Z,100227.95
2023-02-14T03:04:59.358Z,100241.92
2023-02-14T03:06:02.692Z,100234.15
2023-02-14T03:07:05.783Z,100235.91
2023-02-14T03:08:08.627Z,100251.55
2023-02-14T03:10:25.537Z,100246.80
2023-02-14T03:11:29.456Z,100239.20
2023-02-14T03:12:44.294Z,100247.09
2023-02-14T03:13:55.643Z,100250.55
2023-02-14T03:15:36.688Z,100248.83
2023-02-14T03:17:54.518Z,100251.75
2023-02-14T03:19:26.330Z,100254.41
2023-02-14T03:20:47.720Z,100254.44
2023-02-14T03:22:28.056Z,100266.67
2023-02-14T03:23:36.897Z,100264.19
2023-02-14T03:24:57.831Z,100269.45
2023-02-14T03:26:18.815Z,100278.28
2023-02-14T03:28:42.366Z,100264.45
2023-02-14T03:30:00.092Z,100274.33
2023-02-14T03:31:06.032Z,100275.11
2023-02-14T03:32:15.160Z,100282.17
2023-02-14T03:33:33.125Z,100278.64
2023-02-14T03:34:44.151Z,100277.70
2023-02-14T03:37:09.354Z,100273.25
2023-02-14T03:38:17.761Z,100274.39
2023-02-14T03:39:26.299Z,100279.88
2023-02-14T03:40:35.096Z,100270.23
2023-02-14T03:41:53.117Z,100273.63
2023-02-14T03:43:13.583Z,100277.09
2023-02-14T03:44:19.259Z,100270.17
2023-02-14T03:45:30.877Z,100275.58
2023-02-14T03:46:58.165Z,100279.11
2023-02-14T03:48:03.847Z,100262.63
2023-02-14T03:49:09.667Z,100272.21
2023-02-14T03:50:15.734Z,100268.81
2023-02-14T03:51:20.636Z,100268.72
2023-02-14T03:52:26.255Z,100264.28
2023-02-14T03:53:31.939Z,100264.34
2023-02-14T03:54:35.595Z,100266.28
2023-02-14T03:55:56.456Z,100269.66
2023-02-14T03:57:19.431Z,100261.84
2023-02-14T03:58:28.112Z,100264.43
2023-02-14T03:59:32.311Z,100244.37
2023-02-14T04:00:37.696Z,100253.91
2023-02-14T04:01:43.505Z,100257.34
2023-02-14T04:02:52.826Z,100253.91
2023-02-14T04:03:58.178Z,100258.20
2023-02-14T04:05:03.096Z,100268.25
2023-02-14T04:06:06.479Z,100264.55
2023-02-14T04:08:28.392Z,100265.22
2023-02-14T04:09:30.304Z,100263.70
2023-02-14T04:10:32.685Z,100257.63
2023-02-14T04:11:34.699Z,100274.89
2023-02-14T04:12:38.175Z,100276.65
2023-02-14T04:13:41.902Z,100274.06
2023-02-14T04:14:43.813Z,100273.09
2023-02-14T04:15:45.789Z,100274.89
2023-02-14T04:16:47.914Z,100275.83
2023-02-14T04:17:49.896Z,100278.47
2023-02-14T04:18:51.759Z,100277.83
2023-02-14T04:19:54.069Z,100290.77
2023-02-14T04:20:56.410Z,100285.58
2023-02-14T04:21:58.412Z,100279.35
2023-02-14T04:23:03.231Z,100282.00
2023-02-14T04:24:05.896Z,100287.22
2023-02-14T04:25:07.797Z,100294.16
2023-02-14T04:26:10.695Z,100297.53
2023-02-14T04:27:12.738Z,100292.77
2023-02-14T04:28:14.731Z,100298.05
2023-02-14T04:29:17.607Z,100289.27
2023-02-14T04:30:21.164Z,100291.75
2023-02-14T04:31:23.642Z,100298.73
2023-02-14T04:32:27.309Z,100305.55
2023-02-14T04:33:29.963Z,100299.50
2023-02-14T04:34:32.741Z,100301.41
2023-02-14T04:35:35.447Z,100310.02
2023-02-14T04:36:37.838Z,100304.08
2023-02-14T04:37:40.200Z,100297.12
2023-02-14T04:38:42.273Z,100308.28
2023-02-14T04:39:45.219Z,100309.05
2023-02-14T04:40:53.516Z,100309.30
2023-02-14T04:41:56.388Z,100309.95
2023-02-14T04:42:58.352Z,100309.27
2023-02-14T04:44:00.337Z,100316.31
2023-02-14T04:45:04.302Z,100317.88
2023-02-14T04:46:06.826Z,100315.23
2023-02-14T04:47:09.250Z,100316.88
2023-02-14T04:48:11.169Z,100318.62
2023-02-14T04:49:13.200Z,100316.06
2023-02-14T04:50:16.728Z,100318.62
2023-02-14T04:51:18.984Z,100318.62
2023-02-14T04:52:20.892Z,100326.52
2023-02-14T04:53:22.762Z,100327.45
2023-02-14T04:54:24.941Z,100325.86
2023-02-14T04:55:26.838Z,100327.45
2023-02-14T04:56:29.277Z,100325.58
2023-02-14T04:57:31.159Z,100321.12
2023-02-14T04:58:33.139Z,100325.52
2023-02-14T04:59:35.064Z,100322.05
2023-02-14T05:00:37.207Z,100338.92
2023-02-14T05:01:39.681Z,100338.87
2023-02-14T05:02:42.130Z,100344.86
2023-02-14T05:03:44.225Z,100353.67
2023-02-14T05:04:48.771Z,100348.36
2023-02-14T05:05:50.927Z,100353.47
2023-02-14T05:06:53.048Z,100356.28
2023-02-14T05:07:55.086Z,100355.59
2023-02-14T05:08:56.995Z,100347.61
2023-02-14T05:09:59.030Z,100354.66
2023-02-14T05:11:01.769Z,100349.48
2023-02-14T05:12:04.140Z,100351.08
2023-02-14T05:13:06.212Z,100351.08
2023-02-14T05:14:08.560Z,100355.50
2023-02-14T05:15:10.479Z,100341.64
2023-02-14T05:16:13.132Z,100348.55
2023-02-14T05:17:15.120Z,100346.88
2023-02-14T05:18:17.076Z,100349.53
2023-02-14T05:19:19.368Z,100341.70
2023-02-14T05:20:21.795Z,100345.05
2023-02-14T05:21:25.253Z,100349.34
2023-02-14T05:22:27.261Z,100338.16
2023-02-14T05:23:29.268Z,100338.95
2023-02-14T05:24:31.284Z,100332.02
2023-02-14T05:25:33.758Z,100337.99
2023-02-14T05:26:36.362Z,100340.55
2023-02-14T05:27:38.314Z,100335.33
2023-02-14T05:28:40.193Z,100334.58
2023-02-14T05:29:42.092Z,100335.41
2023-02-14T05:30:46.316Z,100335.37
2023-02-14T05:31:48.936Z,100331.83
2023-02-14T05:32:52.815Z,100331.85
2023-02-14T05:33:54.721Z,100332.77
2023-02-14T05:34:56.753Z,100342.41
2023-02-14T05:35:59.697Z,100334.52
2023-02-14T05:37:02.417Z,100339.69
2023-02-14T05:38:04.622Z,100343.27
2023-02-14T05:39:06.733Z,100330.12
2023-02-14T05:40:10.124Z,100333.64
2023-02-14T05:41:13.004Z,100339.66
2023-02-14T05:42:15.010Z,100336.17
2023-02-14T05:43:17.048Z,100333.53
2023-02-14T05:44:19.162Z,100303.47
2023-02-14T05:45:22.539Z,100340.43
2023-02-14T05:46:24.667Z,100340.38
2023-02-14T05:47:27.484Z,100347.42
2023-02-14T05:48:29.406Z,100342.17
2023-02-14T05:49:31.600Z,100345.61
2023-02-14T05:50:33.696Z,100345.61
2023-02-14T05:51:35.576Z,100345.55
2023-02-14T05:52:37.970Z,100350.72
2023-02-14T05:53:40.395Z,100353.36
2023-02-14T05:54:42.340Z,100344.70
2023-02-14T05:55:46.299Z,100351.55
2023-02-14T05:56:48.634Z,100347.34
2023-02-14T05:57:51.498Z,100356.86
2023-02-14T05:58:54.315Z,100355.15
2023-02-14T05:59:56.230Z,100356.14
2023-02-14T06:01:00.282Z,100350.83
2023-02-14T06:02:02.789Z,100352.76
2023-02-14T06:03:04.943Z,100358.95
2023-02-14T06:04:07.497Z,100358.70
2023-02-14T06:05:10.315Z,100355.37
2023-02-14T06:06:14.538Z,100358.06
2023-02-14T06:07:17.047Z,100365.75
2023-02-14T06:08:20.663Z,100359.66
2023-02-14T06:09:23.057Z,100369.30
2023-02-14T06:10:25.462Z,100370.25
2023-02-14T06:11:27.387Z,100367.56
2023-02-14T06:12:29.379Z,100363.11
2023-02-14T06:13:31.325Z,100362.06
2023-02-14T06:14:33.472Z,100372.55
2023-02-14T06:15:39.650Z,100367.40
2023-02-14T06:16:43.707Z,100373.45
2023-02-14T06:17:51.498Z,100382.06
2023-02-14T06:18:54.280Z,100374.27
2023-02-14T06:19:56.387Z,100374.22
2023-02-14T06:20:59.153Z,100363.65
2023-02-14T06:22:02.413Z,100370.67
2023-02-14T06:23:04.784Z,100369.73
2023-02-14T06:24:07.109Z,100368.08
2023-02-14T06:25:09.569Z,100374.91
2023-02-14T06:26:13.398Z,100369.62
2023-02-14T06:27:15.564Z,100373.94
2023-02-14T06:28:18.518Z,100369.62
2023-02-14T06:29:20.553Z,100362.53
2023-02-14T06:30:22.935Z,100372.26
2023-02-14T06:31:25.962Z,100373.82
2023-02-14T06:32:28.161Z,100378.51
2023-02-14T06:33:30.337Z,100387.15
2023-02-14T06:34:35.009Z,100366.80
2023-02-14T06:35:39.019Z,100373.61
2023-02-14T06:36:43.885Z,100370.94
2023-02-14T06:37:46.478Z,100367.35
2023-02-14T06:38:50.756Z,100360.26
2023-02-14T06:39:52.764Z,100367.13
2023-02-14T06:40:54.848Z,100373.25
2023-02-14T06:41:57.138Z,100375.92
2023-02-14T06:42:59.108Z,100372.61
2023-02-14T06:44:01.842Z,100369.84
2023-02-14T06:45:05.747Z,100371.52
2023-02-14T06:46:08.637Z,100360.98
2023-02-14T06:47:10.812Z,100362.72
2023-02-14T06:48:13.739Z,100363.51
2023-02-14T06:49:16.336Z,100359.19
2023-02-14T06:50:19.809Z,100367.86
2023-02-14T06:51:21.732Z,100362.66
2023-02-14T06:52:24.518Z,100368.62
2023-02-14T06:53:27.451Z,100361.48
2023-02-14T06:54:29.778Z,100373.59
2023-02-14T06:55:31.693Z,100366.45
2023-02-14T06:56:33.870Z,100367.21
2023-02-14T06:57:35.740Z,100372.45
2023-02-14T06:58:37.715Z,100352.19
2023-02-14T06:59:39.700Z,100359.97
2023-02-14T07:00:42.111Z,100352.25
2023-02-14T07:01:44.073Z,100355.59
2023-02-14T07:02:46.638Z,100356.67
2023-02-14T07:03:48.666Z,100359.73
2023-02-14T07:04:50.648Z,100358.17
2023-02-14T07:05:53.718Z,100367.23
2023-02-14T07:06:57.964Z,100360.67
2023-02-14T07:08:00.393Z,100355.18
2023-02-14T07:09:03.987Z,100361.77
2023-02-14T07:10:07.713Z,100365.44
2023-02-14T07:11:09.963Z,100360.72
2023-02-14T07:12:12.105Z,100361.45
2023-02-14T07:13:14.316Z,100360.27
2023-02-14T07:14:18.588Z,100369.53
2023-02-14T07:15:20.782Z,100366.17
2023-02-14T07:16:23.380Z,100366.69
2023-02-14T07:17:25.335Z,100365.99
2023-02-14T07:18:27.992Z,100364.15
2023-02-14T07:19:30.308Z,100364.92
2023-02-14T07:20:32.507Z,100354.33
2023-02-14T07:21:35.412Z,100361.23
2023-02-14T07:22:40.629Z,100369.72
2023-02-14T07:23:42.785Z,100358.87
2023-02-14T07:24:44.661Z,100363.92
2023-02-14T07:25:47.263Z,100358.13
2023-02-14T07:26:49.372Z,100368.86
2023-02-14T07:27:51.276Z,100359.20
2023-02-14T07:28:53.310Z,100357.53
2023-02-14T07:29:55.354Z,100360.57
2023-02-14T07:31:01.326Z,100361.45
2023-02-14T07:32:04.467Z,100359.72
2023-02-14T07:33:06.563Z,100359.55
2023-02-14T07:34:08.448Z,100360.13
2023-02-14T07:35:11.415Z,100371.59
2023-02-14T07:36:13.745Z,100357.14
2023-02-14T07:37:15.883Z,100342.92
2023-02-14T07:38:17.879Z,100348.70
2023-02-14T07:39:20.508Z,100344.00
2023-02-14T07:40:22.740Z,100344.55
2023-02-14T07:41:24.935Z,100346.20
2023-02-14T07:42:27.384Z,100340.96
2023-02-14T07:43:30.626Z,100344.63
2023-02-14T07:44:32.670Z,100358.17
2023-02-14T07:45:35.125Z,100344.30
2023-02-14T07:46:37.396Z,100347.66
2023-02-14T07:47:39.385Z,100356.73
2023-02-14T07:48:41.357Z,100354.73
2023-02-14T07:49:43.246Z,100348.47
2023-02-14T07:50:45.448Z,100355.25
2023-02-14T07:51:47.847Z,100357.36
2023-02-14T07:52:50.346Z,100353.15
2023-02-14T07:53:52.738Z,100354.52
2023-02-14T07:54:54.813Z,100352.22
2023-02-14T07:55:56.960Z,100337.32
2023-02-14T07:57:00.932Z,100339.91
2023-02-14T07:58:03.115Z,100345.03
2023-02-14T07:59:05.275Z,100348.97
2023-02-14T08:00:08.712Z,100349.89
2023-02-14T08:01:10.768Z,100349.86
2023-02-14T08:02:12.953Z,100357.75
2023-02-14T08:03:15.814Z,100348.05
2023-02-14T08:04:17.839Z,100341.82
2023-02-14T08:05:19.862Z,100349.75
2023-02-14T08:06:22.443Z,100343.38
2023-02-14T08:07:24.480Z,100364.25
2023-02-14T08:08:28.812Z,100362.21
2023-02-14T08:09:30.943Z,100360.48
2023-02-14T08:10:33.233Z,100354.56
2023-02-14T08:11:36.118Z,100353.47
2023-02-14T08:12:38.513Z,100351.06
2023-02-14T08:13:41.583Z,100356.30
2023-02-14T08:14:44.041Z,100368.51
2023-02-14T08:15:46.088Z,100378.84
2023-02-14T08:16:48.496Z,100381.80
2023-02-14T08:17:52.161Z,100365.07
2023-02-14T08:18:54.914Z,100370.24
2023-02-14T08:19:56.824Z,100367.66
2023-02-14T08:20:59.575Z,100356.40
2023-02-14T08:22:03.732Z,100362.31
2023-02-14T08:23:06.022Z,100356.97
2023-02-14T08:24:07.920Z,100369.08
2023-02-14T08:25:10.020Z,100363.91
2023-02-14T08:26:12.450Z,100373.67
2023-02-14T08:27:14.454Z,100361.64
2023-02-14T08:28:17.496Z,100367.48
2023-02-14T08:29:19.441Z,100367.66
2023-02-14T08:30:22.940Z,100366.91
2023-02-14T08:31:35.684Z,100381.80
2023-02-14T08:32:33.600Z,100374.11
2023-02-14T08:33:36.376Z,100372.21
2023-02-14T08:34:38.626Z,100364.22
2023-02-14T08:35:42.353Z,100368.78
2023-02-14T08:36:44.962Z,100358.41
2023-02-14T08:37:46.947Z,100369.39
2023-02-14T08:38:48.831Z,100365.71
2023-02-14T08:39:50.707Z,100367.55
2023-02-14T08:40:52.818Z,100363.27
2023-02-14T08:41:54.819Z,100366.70
2023-02-14T08:42:57.960Z,100365.95
2023-02-14T08:43:59.949Z,100368.67
2023-02-14T08:45:02.615Z,100368.67
2023-02-14T08:46:06.424Z,100381.73
2023-02-14T08:47:08.413Z,100373.33
2023-02-14T08:48:12.183Z,100380.98
2023-02-14T08:49:14.493Z,100384.28
2023-02-14T08:50:18.044Z,100380.98
2023-02-14T08:51:21.766Z,100385.00
2023-02-14T08:52:23.774Z,100374.56
2023-02-14T08:53:25.774Z,100384.08
2023-02-14T08:54:27.862Z,100375.27
2023-02-14T08:55:29.748Z,100375.17
2023-02-14T08:56:32.066Z,100372.61
2023-02-14T08:57:34.930Z,100376.33
2023-02-14T08:58:38.093Z,100380.81
2023-02-14T08:59:39.992Z,100389.45
2023-02-14T09:00:42.232Z,100382.41
2023-02-14T09:01:44.305Z,100381.59
2023-02-14T09:02:52.285Z,100384.79
2023-02-14T09:03:55.069Z,100397.23
2023-02-14T09:04:57.674Z,100389.59
2023-02-14T09:06:04.634Z,100392.17
2023-02-14T09:07:07.062Z,100388.02
2023-02-14T09:08:08.986Z,100396.69
2023-02-14T09:09:11.966Z,100396.69
2023-02-14T09:10:14.533Z,100399.01
2023-02-14T09:11:19.972Z,100394.69
2023-02-14T09:12:22.072Z,100399.72
2023-02-14T09:13:24.140Z,100399.72
2023-02-14T09:14:26.185Z,100400.78
2023-02-14T09:15:28.811Z,100406.05
2023-02-14T09:16:31.018Z,100399.93
2023-02-14T09:17:33.096Z,100396.42
2023-02-14T09:18:35.520Z,100405.30
2023-02-14T09:19:38.067Z,100403.80
2023-02-14T09:20:40.071Z,100405.53
2023-02-14T09:21:41.943Z,100393.94
2023-02-14T09:22:43.850Z,100388.70
2023-02-14T09:23:45.938Z,100395.58
2023-02-14T09:24:47.995Z,100398.30
2023-02-14T09:25:49.893Z,100394.89
2023-02-14T09:26:51.915Z,100393.88
2023-02-14T09:27:53.784Z,100388.56
2023-02-14T09:28:56.298Z,100399.89
2023-02-14T09:29:58.302Z,100402.64
2023-02-14T09:31:14.592Z,100389.52
2023-02-14T09:32:17.653Z,100396.76
2023-02-14T09:33:19.793Z,100388.16
2023-02-14T09:34:22.055Z,100387.53
2023-02-14T09:35:24.037Z,100399.54
2023-02-14T09:36:26.012Z,100402.84
2023-02-14T09:37:28.021Z,100395.91
2023-02-14T09:38:29.898Z,100389.55
2023-02-14T09:39:31.885Z,100396.69
2023-02-14T09:40:34.440Z,100390.02
2023-02-14T09:41:49.372Z,100384.66
2023-02-14T09:43:00.094Z,100387.43
2023-02-14T09:44:24.769Z,100387.30
2023-02-14T09:45:30.188Z,100379.25
2023-02-14T09:46:36.261Z,100386.97
2023-02-14T09:47:41.949Z,100381.84
2023-02-14T09:48:46.697Z,100382.72
2023-02-14T09:49:51.414Z,100383.37
2023-02-14T09:51:03.298Z,100384.28
2023-02-14T09:52:08.638Z,100384.59
2023-02-14T09:53:26.362Z,100374.77
2023-02-14T09:54:29.995Z,100375.72
2023-02-14T09:55:45.392Z,100375.55
2023-02-14T09:56:57.605Z,100373.61
2023-02-14T09:59:43.792Z,100376.19
2023-02-14T10:00:55.256Z,100382.20
2023-02-14T10:02:28.289Z,100382.95
2023-02-14T10:03:48.694Z,100373.67
2023-02-14T10:04:57.519Z,100375.17
2023-02-14T10:06:21.109Z,100377.75
2023-02-14T10:08:00.445Z,100375.73
2023-02-14T10:09:18.309Z,100371.52
2023-02-14T10:10:30.625Z,100367.84
2023-02-14T10:11:33.928Z,100356.90
2023-02-14T10:12:40.397Z,100351.59
2023-02-14T10:13:46.078Z,100357.53
2023-02-14T10:14:49.716Z,100365.39
2023-02-14T10:16:01.504Z,100370.59
2023-02-14T10:17:16.306Z,100369.78
2023-02-14T10:18:22.588Z,100364.86
2023-02-14T10:19:46.646Z,100368.30
2023-02-14T10:21:02.023Z,100371.66
2023-02-14T10:22:08.352Z,100373.92
2023-02-14T10:23:19.543Z,100367.84
2023-02-14T10:24:31.415Z,100366.91
2023-02-14T10:25:46.078Z,100361.38
2023-02-14T10:26:52.894Z,100359.87
2023-02-14T10:27:57.634Z,100359.23
2023-02-14T10:28:59.680Z,100363.55
2023-02-14T10:30:04.157Z,100366.03
2023-02-14T10:31:27.691Z,100365.03
2023-02-14T10:32:36.695Z,100356.44
2023-02-14T10:33:42.488Z,100360.57
2023-02-14T10:34:47.571Z,100369.57
2023-02-14T10:35:53.386Z,100362.52
2023-02-14T10:37:10.959Z,100362.84
2023-02-14T10:38:23.155Z,100364.41
2023-02-14T10:39:47.266Z,100367.02
2023-02-14T10:41:08.457Z,100357.95
2023-02-14T10:42:17.430Z,100366.35
2023-02-14T10:43:55.297Z,100367.20
2023-02-14T10:45:15.828Z,100357.68
2023-02-14T10:46:39.572Z,100372.55
2023-02-14T10:47:55.237Z,100372.41
2023-02-14T10:49:19.149Z,100358.39
2023-02-14T10:50:25.314Z,100357.36
2023-02-14T10:51:58.703Z,100364.26
2023-02-14T10:53:23.346Z,100366.14
2023-02-14T10:54:37.510Z,100355.18
2023-02-14T10:55:52.285Z,100360.34
2023-02-14T10:57:03.922Z,100358.17
2023-02-14T10:58:06.303Z,100357.91
2023-02-14T10:59:27.077Z,100348.50
2023-02-14T11:00:38.526Z,100351.75
2023-02-14T11:01:42.469Z,100353.48
2023-02-14T11:02:48.310Z,100345.47
2023-02-14T11:03:57.834Z,100342.84
2023-02-14T11:05:03.037Z,100349.64
2023-02-14T11:06:07.184Z,100355.73
2023-02-14T11:07:17.865Z,100360.27
2023-02-14T11:08:40.923Z,100359.61
2023-02-14T11:09:43.562Z,100356.29
2023-02-14T11:10:46.179Z,100356.25
2023-02-14T11:11:51.938Z,100348.23
2023-02-14T11:12:54.169Z,100360.38
2023-02-14T11:13:56.190Z,100351.52
2023-02-14T11:16:36.842Z,100357.50
2023-02-14T11:17:39.712Z,100344.63
2023-02-14T11:18:42.462Z,100356.61
2023-02-14T11:19:48.099Z,100351.45
2023-02-14T11:21:10.793Z,100350.56
2023-02-14T11:22:16.843Z,100338.91
2023-02-14T11:23:20.581Z,100349.79
2023-02-14T11:24:40.577Z,100350.75
2023-02-14T11:25:46.254Z,100347.44
2023-02-14T11:26:50.399Z,100347.98
2023-02-14T11:28:05.477Z,100354.03
2023-02-14T11:29:13.993Z,100346.20
2023-02-14T11:30:23.131Z,100356.14
2023-02-14T11:31:33.700Z,100354.25
2023-02-14T11:32:36.176Z,100356.10
2023-02-14T11:33:41.313Z,100360.57
2023-02-14T11:34:56.496Z,100364.26
2023-02-14T11:35:59.689Z,100359.76
2023-02-14T11:37:04.721Z,100366.98
2023-02-14T11:38:11.275Z,100360.72
2023-02-14T11:39:23.049Z,100355.44
2023-02-14T11:40:32.110Z,100357.10
2023-02-14T11:41:50.180Z,100359.69
2023-02-14T11:43:02.234Z,100361.45
2023-02-14T11:44:01.821Z,100370.49
2023-02-14T11:45:05.444Z,100378.09
2023-02-14T11:46:24.926Z,100370.34
2023-02-14T11:47:29.703Z,100369.50
2023-02-14T11:48:38.376Z,100374.52
2023-02-14T11:49:35.622Z,100374.52
2023-02-14T11:50:38.724Z,100378.20
2023-02-14T11:51:44.233Z,100379.20
2023-02-14T11:52:53.569Z,100381.22
2023-02-14T11:53:58.483Z,100372.27
2023-02-14T11:55:01.144Z,100374.24
2023-02-14T11:56:03.579Z,100382.92
2023-02-14T11:57:08.768Z,100384.83
2023-02-14T11:58:14.474Z,100376.16
2023-02-14T12:00:33.437Z,100373.84
2023-02-14T12:01:37.344Z,100386.42
2023-02-14T12:02:43.173Z,100377.99
2023-02-14T12:03:47.710Z,100374.45
2023-02-14T12:04:53.465Z,100371.16
2023-02-14T12:05:56.136Z,100365.75
2023-02-14T12:07:18.753Z,100374.48
2023-02-14T12:08:30.600Z,100370.17
2023-02-14T12:09:32.798Z,100378.23
2023-02-14T12:10:37.233Z,100386.16
2023-02-14T12:11:39.523Z,100369.53
2023-02-14T12:14:01.257Z,100386.02
2023-02-14T12:15:31.487Z,100372.14
2023-02-14T12:16:37.444Z,100376.73
2023-02-14T12:17:43.762Z,100384.48
2023-02-14T12:18:55.459Z,100384.42
2023-02-14T12:20:09.927Z,100387.82
2023-02-14T12:21:22.172Z,100381.80
2023-02-14T12:23:42.182Z,100364.48
2023-02-14T12:25:12.629Z,100382.98
2023-02-14T12:26:34.255Z,100386.80
2023-02-14T12:27:48.987Z,100380.03
2023-02-14T12:28:55.045Z,100382.65
2023-02-14T12:30:03.822Z,100384.28
2023-02-14T12:31:11.172Z,100393.13
2023-02-14T12:32:22.766Z,100372.28
2023-02-14T12:33:24.791Z,100374.56
2023-02-14T12:34:27.225Z,100366.70
2023-02-14T12:35:49.257Z,100380.64
2023-02-14T12:37:11.946Z,100380.47
2023-02-14T12:38:23.355Z,100384.22
2023-02-14T12:39:38.273Z,100377.08
2023-02-14T12:40:53.408Z,100395.41
2023-02-14T12:42:05.006Z,100383.20
2023-02-14T12:43:27.227Z,100404.11
2023-02-14T12:44:51.205Z,100382.62
2023-02-14T12:47:35.237Z,100394.69
2023-02-14T12:49:14.690Z,100382.98